Time;durP1;ratioP1;P1;durP2;ratioP2;P2;SDS_P1;SDS_P2;PMS_P1;PMS_P2;Temp;Humidity;BMP_temperature;BMP_pressure;BME280_temperature;BME280_humidity;BME280_pressure;Samples;Min_cycle;Max_cycle;Signal;HPM_P1;HPM_P2
2021/09/14 00:00:19;;;;;;;10.63;6.20;;;;;;;;;;6294078;28;20115;-84
2021/09/14 00:03:20;;;;;;;7.50;6.40;;;16.30;99.90;;;;;;6293843;28;20501;-85
2021/09/14 00:06:21;;;;;;;7.90;6.47;;;;;;;;;;6260521;28;20028;-85
2021/09/14 00:09:22;;;;;;;8.18;6.28;;;;;;;;;;6276892;28;20040;-86
2021/09/14 00:12:22;;;;;;;6.47;5.82;;;16.40;99.90;;;;;;6277389;28;20043;-85
2021/09/14 00:15:23;;;;;;;7.65;6.47;;;;;;;;;;6260213;28;20060;-85
2021/09/14 00:18:24;;;;;;;8.45;6.72;;;;;;;;;;6277055;28;20032;-86
2021/09/14 00:21:25;;;;;;;8.15;7.00;;;;;;;;;;6293570;28;20036;-84
2021/09/14 00:24:26;;;;;;;8.75;6.78;;;16.30;99.90;;;;;;6293267;28;20475;-85
2021/09/14 00:27:27;;;;;;;7.38;6.30;;;;;;;;;;6275938;28;20071;-84
2021/09/14 00:30:28;;;;;;;8.15;6.35;;;;;;;;;;6276728;28;20031;-84
2021/09/14 00:33:29;;;;;;;11.20;6.53;;;;;;;;;;6276563;28;20356;-86
2021/09/14 00:36:30;;;;;;;8.77;6.37;;;;;;;;;;6276594;28;20052;-86
2021/09/14 00:39:31;;;;;;;8.90;7.07;;;16.40;99.90;;;;;;6292678;28;20081;-86
2021/09/14 00:42:32;;;;;;;8.43;7.03;;;16.20;99.90;;;;;;6259273;28;20475;-87
2021/09/14 00:45:33;;;;;;;8.32;6.88;;;16.20;99.90;;;;;;6259679;28;20028;-86
2021/09/14 00:48:34;;;;;;;7.43;6.45;;;;;;;;;;6275054;28;20419;-86
2021/09/14 00:51:34;;;;;;;8.88;6.75;;;16.20;99.90;;;;;;6276337;28;20039;-86
2021/09/14 00:54:39;;;;;;;7.85;6.78;;;;;;;;;;6259636;28;20028;-86
2021/09/14 00:57:39;;;;;;;8.55;6.85;;;16.30;99.90;;;;;;6276296;28;20105;-87
2021/09/14 01:00:40;;;;;;;8.00;6.70;;;16.00;99.90;;;;;;6260603;28;20356;-86
2021/09/14 01:03:41;;;;;;;7.47;6.63;;;;;;;;;;6259281;28;20021;-86
2021/09/14 01:06:42;;;;;;;7.43;6.40;;;;;;;;;;6275411;28;20111;-86
2021/09/14 01:09:43;;;;;;;7.80;6.60;;;;;;;;;;6275578;28;20039;-86
2021/09/14 01:12:44;;;;;;;6.95;6.22;;;;;;;;;;6275342;28;20108;-86
2021/09/14 01:15:44;;;;;;;8.57;6.07;;;15.80;99.90;;;;;;6275696;28;20024;-84
2021/09/14 01:18:45;;;;;;;10.20;7.40;;;;;;;;;;6275262;28;20043;-86
2021/09/14 01:21:46;;;;;;;8.20;7.13;;;;;;;;;;6275226;28;20024;-85
2021/09/14 01:24:47;;;;;;;7.78;7.07;;;;;;;;;;6275358;28;20025;-86
2021/09/14 01:27:48;;;;;;;9.02;6.72;;;;;;;;;;6274883;28;20119;-84
2021/09/14 01:30:49;;;;;;;8.63;6.78;;;15.60;99.90;;;;;;6291095;28;20118;-84
2021/09/14 01:33:50;;;;;;;8.30;6.43;;;;;;;;;;6258582;28;20028;-85
2021/09/14 01:36:51;;;;;;;7.70;6.90;;;;;;;;;;6275197;28;20024;-84
2021/09/14 01:39:52;;;;;;;7.40;6.68;;;;;;;;;;6291413;28;20027;-84
2021/09/14 01:42:53;;;;;;;7.72;6.93;;;15.40;99.90;;;;;;6291634;28;20356;-85
2021/09/14 01:45:54;;;;;;;7.20;6.20;;;15.60;99.90;;;;;;6258052;28;20024;-84
2021/09/14 01:48:54;;;;;;;8.07;7.07;;;15.30;99.90;;;;;;6291605;28;20049;-83
2021/09/14 01:51:55;;;;;;;8.10;6.57;;;14.80;99.90;;;;;;6274811;28;20028;-83
2021/09/14 01:54:56;;;;;;;7.78;6.65;;;;;;;;;;6274697;28;20036;-83
2021/09/14 01:57:58;;;;;;;7.57;6.47;;;;;;;;;;6292989;28;20059;-83
2021/09/14 02:04:18;;;;;;;8.82;6.65;;;15.40;99.90;;;;;;6291615;28;20092;-86
2021/09/14 02:59:13;;;;;;;7.75;7.00;;;14.90;99.90;;;;;;6274924;28;20440;-85
2021/09/14 03:02:13;;;;;;;8.85;6.85;;;14.90;99.90;;;;;;6257331;28;20024;-85
2021/09/14 03:05:14;;;;;;;9.95;7.28;;;14.90;99.90;;;;;;6257595;28;20653;-84
2021/09/14 03:08:15;;;;;;;8.65;7.15;;;15.10;99.90;;;;;;6274011;28;20031;-85
2021/09/14 03:11:16;;;;;;;8.20;6.75;;;;;;;;;;6274083;28;20029;-84
2021/09/14 03:14:17;;;;;;;9.15;7.15;;;14.80;99.90;;;;;;6278782;28;20031;-84
2021/09/14 03:17:18;;;;;;;8.73;7.05;;;14.90;99.90;;;;;;6261715;28;20016;-84
2021/09/14 03:20:18;;;;;;;11.10;7.15;;;14.90;99.90;;;;;;6278311;28;20039;-85
2021/09/14 03:23:19;;;;;;;7.95;6.78;;;;;;;;;;6278543;28;20112;-84
2021/09/14 03:26:20;;;;;;;8.00;6.88;;;;;;;;;;6277821;28;20025;-85
2021/09/14 03:29:21;;;;;;;7.47;6.78;;;;;;;;;;6278013;28;20029;-85
2021/09/14 03:32:22;;;;;;;12.68;8.15;;;15.00;99.90;;;;;;6278004;28;20036;-84
2021/09/14 03:35:23;;;;;;;9.95;8.30;;;;;;;;;;6294510;28;20036;-84
2021/09/14 03:38:23;;;;;;;8.43;7.63;;;14.80;99.90;;;;;;6294788;28;20386;-85
2021/09/14 03:41:24;;;;;;;8.30;7.47;;;;;;;;;;6261351;28;20037;-85
2021/09/14 03:44:25;;;;;;;8.27;7.35;;;15.20;99.90;;;;;;6277578;28;20480;-86
2021/09/14 03:47:25;;;;;;;11.13;7.75;;;15.20;99.90;;;;;;6260818;28;20049;-86
2021/09/14 03:50:26;;;;;;;8.68;7.47;;;;;;;;;;6277805;28;20390;-86
2021/09/14 03:53:28;;;;;;;9.15;7.28;;;;;;;;;;6294724;28;20031;-86
2021/09/14 03:56:28;;;;;;;7.97;7.03;;;15.00;99.90;;;;;;6277422;28;20033;-86
2021/09/14 03:59:29;;;;;;;12.73;7.72;;;;;;;;;;6277693;28;20428;-84
2021/09/14 04:03:38;;;;;;;8.93;7.57;;;15.10;99.90;;;;;;6294294;28;20031;-86
2021/09/14 04:09:01;;;;;;;7.85;7.05;;;;;;;;;;6277150;28;20045;-86
2021/09/14 04:12:01;;;;;;;8.27;7.43;;;14.80;99.90;;;;;;6276919;28;20021;-86
2021/09/14 04:15:02;;;;;;;8.20;7.30;;;14.90;99.90;;;;;;6260359;28;20417;-85
2021/09/14 04:18:03;;;;;;;8.82;7.93;;;;;;;;;;6260085;28;20040;-84
2021/09/14 04:21:05;;;;;;;8.80;7.40;;;;;;;;;;6293837;28;20020;-85
2021/09/14 04:24:06;;;;;;;8.82;7.93;;;;;;;;;;6278466;28;20035;-83
2021/09/14 04:27:07;;;;;;;9.45;7.68;;;;;;;;;;6292347;28;20025;-84
2021/09/14 04:30:09;;;;;;;9.15;8.23;;;15.10;99.90;;;;;;6276478;28;20463;-84
2021/09/14 04:33:10;;;;;;;9.52;8.18;;;;;;;;;;6276141;28;20110;-86
2021/09/14 04:36:11;;;;;;;10.85;8.38;;;;;;;;;;6293238;28;20695;-85
2021/09/14 04:39:12;;;;;;;8.30;7.35;;;;;;;;;;6292675;28;20024;-86
2021/09/14 04:42:13;;;;;;;8.50;7.70;;;14.90;99.90;;;;;;6293006;28;20105;-86
2021/09/14 04:45:14;;;;;;;8.80;7.88;;;;;;;;;;6258172;28;20028;-86
2021/09/14 04:48:15;;;;;;;10.50;7.88;;;;;;;;;;6293283;28;20056;-88
2021/09/14 04:51:16;;;;;;;8.73;7.82;;;;;;;;;;6275394;28;20074;-88
2021/09/14 04:54:22;;;;;;;8.63;7.38;;;15.30;99.90;;;;;;6276786;28;20105;-88
2021/09/14 04:57:23;;;;;;;9.90;8.05;;;15.10;99.90;;;;;;6259701;28;20371;-88
2021/09/14 05:00:43;;;;;;;8.15;7.30;;;;;;;;;;6260117;28;20024;-90
2021/09/14 05:03:44;;;;;;;8.75;7.85;;;;;;;;;;6277199;28;20116;-86
2021/09/14 05:07:22;;;;;;;8.93;8.02;;;15.50;99.90;;;;;;6295695;28;20108;-92
2021/09/14 05:14:20;;;;;;;8.65;7.38;;;;;;;;;;6295194;28;20648;-84
2021/09/14 05:17:21;;;;;;;8.50;7.10;;;;;;;;;;6275562;28;20489;-84
2021/09/14 05:20:22;;;;;;;9.88;7.90;;;;;;;;;;6275861;28;20034;-87
2021/09/14 05:23:30;;;;;;;8.55;7.65;;;;;;;;;;6274276;28;20021;-87
2021/09/14 05:26:31;;;;;;;8.85;7.85;;;15.30;99.90;;;;;;6275587;28;20031;-85
2021/09/14 05:29:32;;;;;;;8.95;8.05;;;;;;;;;;6275145;28;20136;-85
2021/09/14 05:32:32;;;;;;;10.25;7.72;;;15.50;99.90;;;;;;6275360;28;20032;-83
2021/09/14 05:35:41;;;;;;;10.55;8.30;;;15.40;99.90;;;;;;6257805;28;20055;-87
2021/09/14 05:38:42;;;;;;;12.88;7.07;;;15.60;99.90;;;;;;6275721;28;21160;-84
2021/09/14 05:41:43;;;;;;;8.20;7.40;;;;;;;;;;6291482;28;20077;-84
2021/09/14 05:44:44;;;;;;;8.48;6.95;;;16.10;99.90;;;;;;6274858;28;20024;-82
2021/09/14 05:47:44;;;;;;;14.55;7.10;;;16.10;99.90;;;;;;6291030;28;20090;-83
2021/09/14 05:50:45;;;;;;;7.95;6.82;;;;;;;;;;6293797;28;20374;-88
2021/09/14 05:53:46;;;;;;;7.68;6.53;;;16.90;99.90;;;;;;6274913;28;20039;-86
2021/09/14 05:56:47;;;;;;;10.68;6.80;;;;;;;;;;6275618;28;20029;-86
2021/09/14 05:59:48;;;;;;;7.50;5.97;;;;;;;;;;6275153;28;20374;-79
2021/09/14 06:02:49;;;;;;;8.30;6.53;;;;;;;;;;6292399;28;20082;-81
2021/09/14 06:05:50;;;;;;;9.60;6.85;;;17.20;99.90;;;;;;6291620;28;20538;-81
2021/09/14 06:08:51;;;;;;;8.40;7.47;;;;;;;;;;6269565;28;20051;-82
2021/09/14 06:11:51;;;;;;;13.73;7.15;;;17.40;99.90;;;;;;6291113;28;20036;-82
2021/09/14 06:14:52;;;;;;;7.40;6.38;;;17.80;99.90;;;;;;6292271;28;20036;-82
2021/09/14 06:17:53;;;;;;;6.85;6.18;;;18.50;99.90;;;;;;6274474;28;20077;-82
2021/09/14 06:20:54;;;;;;;8.07;6.57;;;18.80;99.90;;;;;;6290681;28;20740;-82
2021/09/14 06:23:55;;;;;;;9.00;6.20;;;19.30;99.90;;;;;;6272430;28;20058;-82
2021/09/14 06:26:55;;;;;;;7.80;7.00;;;19.50;99.90;;;;;;6292297;28;20032;-82
2021/09/14 06:29:56;;;;;;;8.77;7.47;;;19.90;99.90;;;;;;6257342;28;20043;-83
2021/09/14 06:32:56;;;;;;;7.72;7.00;;;20.30;99.90;;;;;;6291221;28;20474;-82
2021/09/14 06:35:57;;;;;;;7.85;7.05;;;20.70;99.90;;;;;;6273673;28;20040;-82
2021/09/14 06:38:58;;;;;;;7.85;6.97;;;21.00;99.90;;;;;;6290567;28;20035;-82
2021/09/14 06:41:58;;;;;;;8.57;6.65;;;21.30;99.90;;;;;;6273404;28;20477;-82
2021/09/14 06:44:59;;;;;;;7.78;6.97;;;21.30;99.90;;;;;;6290917;28;20461;-82
2021/09/14 06:47:59;;;;;;;8.68;6.72;;;21.40;99.90;;;;;;6276805;28;20048;-82
2021/09/14 06:51:00;;;;;;;7.47;6.68;;;21.50;99.90;;;;;;6278546;28;20032;-82
2021/09/14 06:54:01;;;;;;;7.07;6.38;;;21.80;99.90;;;;;;6296257;28;20020;-82
2021/09/14 06:57:02;;;;;;;7.45;6.20;;;22.00;99.90;;;;;;6278241;28;20024;-82
2021/09/14 07:00:03;;;;;;;6.85;6.15;;;22.40;99.90;;;;;;6295570;28;20029;-83
2021/09/14 07:03:05;;;;;;;7.57;6.07;;;;;;;;;;6278031;28;20043;-86
2021/09/14 07:06:06;;;;;;;10.50;6.03;;;;;;;;;;6294625;28;20035;-84
2021/09/14 07:09:07;;;;;;;7.38;6.68;;;23.50;99.90;;;;;;6278065;28;20037;-82
2021/09/14 07:12:08;;;;;;;6.35;5.72;;;24.00;99.90;;;;;;6261487;28;20031;-82
2021/09/14 07:15:09;;;;;;;6.72;5.63;;;24.40;99.90;;;;;;6294490;28;20025;-83
2021/09/14 07:18:09;;;;;;;6.47;5.88;;;24.80;99.90;;;;;;6261800;28;20072;-82
2021/09/14 07:21:10;;;;;;;7.63;5.87;;;25.00;99.90;;;;;;6278149;28;20433;-82
2021/09/14 07:24:10;;;;;;;6.28;5.57;;;25.00;99.90;;;;;;6294384;28;20056;-82
2021/09/14 07:27:11;;;;;;;6.53;5.30;;;25.20;99.90;;;;;;6296345;28;20029;-82
2021/09/14 07:30:12;;;;;;;7.77;5.97;;;25.10;99.90;;;;;;6293867;28;20075;-82
2021/09/14 07:33:13;;;;;;;6.30;5.70;;;25.60;99.50;;;;;;6277441;28;20410;-83
2021/09/14 07:36:14;;;;;;;6.90;5.93;;;25.90;98.90;;;;;;6261102;28;20037;-82
2021/09/14 07:39:15;;;;;;;9.70;6.93;;;25.80;99.90;;;;;;6277774;28;20450;-83
2021/09/14 07:42:15;;;;;;;8.43;6.83;;;25.30;99.90;;;;;;6294377;28;20025;-82
2021/09/14 07:45:16;;;;;;;9.33;6.63;;;25.90;99.90;;;;;;6294426;28;20042;-82
2021/09/14 07:48:16;;;;;;;10.80;7.30;;;25.80;98.10;;;;;;6277130;28;20097;-82
2021/09/14 07:51:17;;;;;;;9.20;7.57;;;26.50;99.90;;;;;;6295011;28;20029;-83
2021/09/14 07:54:18;;;;;;;9.10;7.40;;;27.00;99.90;;;;;;6277468;28;20115;-82
2021/09/14 07:57:18;;;;;;;7.43;6.53;;;27.30;99.90;;;;;;6293446;28;20029;-82
2021/09/14 08:00:19;;;;;;;7.23;5.70;;;28.20;99.90;;;;;;6260845;28;20029;-83
2021/09/14 08:03:19;;;;;;;8.63;6.00;;;29.20;99.90;;;;;;6260571;28;20031;-82
2021/09/14 08:06:20;;;;;;;7.63;5.90;;;29.50;99.90;;;;;;6293766;28;20802;-82
2021/09/14 08:09:21;;;;;;;7.43;5.63;;;;;;;;;;6294145;28;20036;-83
2021/09/14 08:12:22;;;;;;;5.63;4.95;;;;;;;;;;6276898;28;20102;-82
2021/09/14 08:15:23;;;;;;;7.95;6.07;;;;;;;;;;6292955;28;20020;-83
2021/09/14 08:18:24;;;;;;;6.82;5.32;;;31.60;98.90;;;;;;6276829;28;20037;-83
2021/09/14 08:21:25;;;;;;;6.40;4.80;;;31.40;91.10;;;;;;6295171;28;20111;-83
2021/09/14 08:24:26;;;;;;;5.53;5.03;;;;;;;;;;6276308;28;20378;-83
2021/09/14 08:27:26;;;;;;;6.22;5.35;;;32.40;84.00;;;;;;6293397;28;20067;-82
2021/09/14 08:30:27;;;;;;;6.07;5.47;;;32.90;86.90;;;;;;6294018;28;20048;-83
2021/09/14 08:33:27;;;;;;;9.87;6.23;;;33.10;72.50;;;;;;6276344;28;20041;-83
2021/09/14 08:36:28;;;;;;;8.07;6.07;;;33.30;74.20;;;;;;6259442;28;20025;-82
2021/09/14 08:39:29;;;;;;;6.38;5.65;;;33.60;74.50;;;;;;6292996;28;20465;-83
2021/09/14 08:42:30;;;;;;;8.47;6.00;;;33.70;74.00;;;;;;6259511;28;20039;-83
2021/09/14 08:45:30;;;;;;;5.95;5.35;;;33.60;73.70;;;;;;6276161;28;20028;-82
2021/09/14 08:48:31;;;;;;;7.33;5.97;;;33.20;71.00;;;;;;6275815;28;20372;-83
2021/09/14 08:51:31;;;;;;;7.50;5.73;;;33.00;74.00;;;;;;6275911;28;20067;-81
2021/09/14 08:54:32;;;;;;;6.60;5.90;;;32.80;74.10;;;;;;6292505;28;20063;-81
2021/09/14 08:57:32;;;;;;;11.07;5.70;;;32.60;73.20;;;;;;6275554;28;20262;-85
2021/09/14 09:00:35;;;;;;;7.28;5.45;;;32.80;73.20;;;;;;6275894;28;20115;-81
2021/09/14 09:03:37;;;;;;;7.38;5.75;;;33.00;71.80;;;;;;6256771;28;20040;-83
2021/09/14 09:06:39;;;;;;;6.18;5.57;;;32.90;72.00;;;;;;6255981;28;20028;-84
2021/09/14 09:09:39;;;;;;;7.40;6.13;;;33.00;72.20;;;;;;6255147;28;20063;-84
2021/09/14 09:12:45;;;;;;;7.17;5.40;;;33.00;72.20;;;;;;6256964;28;20036;-84
2021/09/14 09:15:45;;;;;;;6.00;5.22;;;33.10;71.60;;;;;;6274049;28;20371;-83
2021/09/14 09:19:00;;;;;;;6.38;5.10;;;32.80;71.30;;;;;;6257169;28;20028;-83
2021/09/14 09:22:00;;;;;;;7.28;5.25;;;32.10;72.10;;;;;;6258046;28;20036;-84
2021/09/14 09:25:01;;;;;;;7.72;5.38;;;31.20;74.40;;;;;;6274257;28;20082;-84
2021/09/14 09:28:07;;;;;;;8.02;5.90;;;30.90;76.70;;;;;;6258757;28;20036;-84
2021/09/14 09:31:11;;;;;;;7.18;5.40;;;31.20;76.60;;;;;;6258559;28;20044;-84
2021/09/14 09:34:12;;;;;;;7.63;5.50;;;;;;;;;;6257445;28;20036;-83
2021/09/14 09:37:15;;;;;;;6.70;5.20;;;32.30;71.20;;;;;;6273010;28;20021;-83
2021/09/14 09:40:30;;;;;;;5.50;5.00;;;32.70;69.30;;;;;;6259560;28;20082;-86
2021/09/14 09:43:31;;;;;;;5.38;4.60;;;33.20;77.30;;;;;;6273217;28;20032;-88
2021/09/14 09:46:32;;;;;;;5.07;4.55;;;33.40;67.90;;;;;;6258615;28;20020;-87
2021/09/14 09:49:33;;;;;;;5.55;4.18;;;33.50;65.30;;;;;;6258899;28;20068;-87
2021/09/14 09:52:34;;;;;;;8.35;5.05;;;34.50;66.20;;;;;;6275382;28;20173;-86
2021/09/14 09:55:35;;;;;;;5.05;4.55;;;33.90;65.60;;;;;;6257990;28;20169;-86
2021/09/14 09:58:36;;;;;;;6.50;4.72;;;33.60;63.20;;;;;;6258273;28;20032;-86
2021/09/14 10:01:36;;;;;;;6.40;4.38;;;33.00;64.00;;;;;;6258208;28;20028;-85
2021/09/14 10:05:00;;;;;;;4.90;4.40;;;32.30;64.70;;;;;;6274708;28;20570;-86
2021/09/14 10:08:12;;;;;;;5.10;4.50;;;31.90;66.20;;;;;;6260285;28;20025;-87
2021/09/14 10:11:14;;;;;;;16.23;4.90;;;31.40;65.00;;;;;;6291771;28;20020;-86
2021/09/14 10:14:15;;;;;;;5.82;4.68;;;30.80;68.30;;;;;;6258206;28;20149;-86
2021/09/14 10:17:16;;;;;;;4.43;4.03;;;30.50;68.20;;;;;;6257865;28;20032;-86
2021/09/14 10:20:18;;;;;;;6.67;4.77;;;29.80;69.50;;;;;;6258413;28;20083;-86
2021/09/14 10:23:34;;;;;;;7.03;4.43;;;29.50;69.40;;;;;;6263054;28;20768;-85
2021/09/14 10:26:35;;;;;;;11.60;4.40;;;29.10;70.30;;;;;;6264329;28;20366;-86
2021/09/14 10:29:36;;;;;;;5.30;4.43;;;29.00;71.50;;;;;;6262479;28;20044;-85
2021/09/14 10:32:43;;;;;;;4.77;4.30;;;29.00;91.40;;;;;;6262907;28;20051;-87
2021/09/14 10:35:45;;;;;;;5.40;4.72;;;29.10;86.00;;;;;;6262104;28;20040;-87
2021/09/14 10:38:48;;;;;;;6.18;4.85;;;29.40;92.70;;;;;;6279776;28;20067;-85
2021/09/14 10:41:52;;;;;;;6.90;4.82;;;;;;;;;;6263665;28;20143;-87
2021/09/14 10:44:54;;;;;;;4.72;4.05;;;;;;;;;;6279807;28;20557;-86
2021/09/14 10:47:55;;;;;;;4.85;4.35;;;;;;;;;;6278698;28;20051;-86
2021/09/14 10:51:11;;;;;;;5.28;4.55;;;29.60;77.30;;;;;;6279342;28;20060;-86
2021/09/14 10:54:19;;;;;;;4.90;4.50;;;29.70;81.20;;;;;;6279303;28;20032;-87
2021/09/14 10:57:22;;;;;;;5.50;4.53;;;;;;;;;;6274226;28;20089;-87
2021/09/14 11:00:35;;;;;;;5.30;4.43;;;30.30;93.50;;;;;;6295177;28;20020;-86
2021/09/14 11:03:36;;;;;;;5.47;4.60;;;;;;;;;;6264256;28;20032;-86
2021/09/14 11:06:37;;;;;;;9.48;5.53;;;30.70;92.90;;;;;;6294336;28;20379;-86
2021/09/14 11:09:39;;;;;;;7.45;4.15;;;30.60;78.20;;;;;;6262329;28;20056;-86
2021/09/14 11:12:44;;;;;;;5.57;4.32;;;30.60;78.40;;;;;;6261688;28;20028;-87
2021/09/14 11:16:00;;;;;;;6.45;5.03;;;30.70;79.80;;;;;;6262253;28;20031;-86
2021/09/14 11:19:01;;;;;;;6.90;4.40;;;;;;;;;;6264166;28;20124;-86
2021/09/14 11:22:02;;;;;;;5.53;4.53;;;;;;;;;;6278443;28;20035;-87
2021/09/14 11:25:03;;;;;;;4.82;4.03;;;31.70;92.00;;;;;;6277770;28;20029;-86
2021/09/14 11:28:09;;;;;;;;;;;31.70;77.70;;;;;;6256642;28;20055;-88
2021/09/14 11:31:11;;;;;;;5.05;4.47;;;31.90;74.20;;;;;;6278376;28;19916;-88
2021/09/14 11:34:15;;;;;;;5.35;4.18;;;;;;;;;;6259897;28;20421;-89
2021/09/14 11:37:25;;;;;;;4.55;4.15;;;31.80;73.40;;;;;;6278571;28;20075;-89
2021/09/14 11:40:26;;;;;;;5.90;4.45;;;;;;;;;;6261996;28;20099;-90
2021/09/14 11:43:33;;;;;;;5.35;4.35;;;31.70;66.50;;;;;;6277609;28;20479;-90
2021/09/14 11:46:34;;;;;;;5.40;4.30;;;;;;;;;;6262270;28;20056;-90
2021/09/14 11:49:35;;;;;;;5.10;4.20;;;31.70;74.50;;;;;;6278046;28;20040;-90
2021/09/14 11:52:36;;;;;;;5.78;4.63;;;32.30;72.30;;;;;;6261886;28;20031;-91
2021/09/14 11:55:47;;;;;;;7.07;4.78;;;31.80;66.90;;;;;;6261565;28;20599;-90
2021/09/14 11:58:48;;;;;;;6.88;4.93;;;;;;;;;;6278753;28;20033;-90
2021/09/14 12:01:49;;;;;;;;;;;33.90;69.50;;;;;;6278810;28;20066;-89
2021/09/14 12:04:59;;;;;;;5.40;4.90;;;31.90;67.30;;;;;;6277958;28;19912;-91
2021/09/14 12:08:00;;;;;;;6.10;4.25;;;31.40;66.50;;;;;;6260522;28;20079;-88
2021/09/14 12:27:02;;;;;;;5.38;4.72;;;;;;;;;;6215813;28;20034;-95
2021/09/14 12:30:06;;;;;;;7.88;4.63;;;;;;;;;;6200664;28;20400;-89
2021/09/14 12:47:47;;;;;;;5.72;4.45;;;28.80;90.70;;;;;;6501690;22;20107;-90
2021/09/14 12:50:48;;;;;;;8.85;4.95;;;;;;;;;;6195976;28;20045;-89
2021/09/14 12:53:49;;;;;;;6.68;4.50;;;28.10;75.60;;;;;;6205126;28;20030;-89
2021/09/14 12:56:49;;;;;;;4.90;4.33;;;28.10;91.00;;;;;;6179888;28;20040;-92
2021/09/14 12:59:50;;;;;;;6.13;4.73;;;28.40;80.80;;;;;;6185566;28;20049;-88
2021/09/14 13:02:51;;;;;;;5.87;5.27;;;28.20;80.90;;;;;;6205069;28;20040;-89
2021/09/14 13:05:51;;;;;;;7.10;5.07;;;28.00;82.50;;;;;;6182906;28;20029;-89
2021/09/14 13:08:52;;;;;;;5.50;4.43;;;27.90;83.30;;;;;;6195385;28;20045;-87
2021/09/14 13:11:53;;;;;;;8.60;4.93;;;27.80;80.10;;;;;;6199772;28;20065;-88
2021/09/14 13:18:28;;;;;;;6.25;5.18;;;28.10;91.40;;;;;;6206340;28;20120;-90
2021/09/14 13:21:31;;;;;;;6.25;5.35;;;;;;;;;;6189178;28;20475;-88
2021/09/14 13:24:32;;;;;;;5.90;5.10;;;;;;;;;;6206816;28;20052;-83
2021/09/14 13:27:33;;;;;;;5.63;5.07;;;;;;;;;;6197862;28;20026;-87
2021/09/14 13:30:34;;;;;;;6.97;5.38;;;;;;;;;;6198914;28;20037;-87
2021/09/14 13:33:38;;;;;;;5.38;4.53;;;28.10;82.00;;;;;;6205835;28;20025;-87
2021/09/14 13:36:39;;;;;;;5.20;4.28;;;;;;;;;;6196034;28;20538;-88
2021/09/14 13:39:52;;;;;;;8.40;4.97;;;27.90;92.90;;;;;;6207532;28;20132;-88
2021/09/14 13:42:55;;;;;;;6.32;5.25;;;;;;;;;;6176394;28;20514;-91
2021/09/14 13:46:11;;;;;;;9.13;5.10;;;;;;;;;;6221567;28;20092;-88
2021/09/14 13:49:15;;;;;;;6.43;5.40;;;27.60;93.50;;;;;;6226410;28;20120;-89
2021/09/14 13:52:19;;;;;;;5.97;5.00;;;27.50;93.30;;;;;;6219906;28;20028;-85
2021/09/14 13:55:19;;;;;;;7.05;5.88;;;27.30;93.60;;;;;;6212572;28;20021;-83
2021/09/14 13:58:23;;;;;;;6.40;5.70;;;27.40;83.70;;;;;;6209055;28;20483;-89
2021/09/14 14:01:24;;;;;;;6.95;5.00;;;;;;;;;;6212894;28;20130;-89
2021/09/14 14:04:25;;;;;;;6.07;5.47;;;;;;;;;;6231386;28;20036;-90
2021/09/14 14:07:26;;;;;;;5.65;5.10;;;;;;;;;;6231529;28;20514;-88
2021/09/14 14:10:27;;;;;;;5.68;5.10;;;;;;;;;;6228725;28;20084;-87
2021/09/14 14:13:29;;;;;;;7.95;5.80;;;;;;;;;;6216621;28;20037;-87
2021/09/14 14:16:29;;;;;;;7.05;5.00;;;26.40;88.60;;;;;;6228938;28;20026;-90
2021/09/14 14:19:30;;;;;;;7.73;5.23;;;26.20;91.30;;;;;;6212465;28;20029;-88
2021/09/14 14:22:31;;;;;;;8.87;5.40;;;26.30;91.10;;;;;;6204869;28;20112;-87
2021/09/14 14:25:32;;;;;;;8.07;5.73;;;;;;;;;;6214921;28;20018;-87
2021/09/14 14:28:35;;;;;;;6.05;5.05;;;25.60;91.30;;;;;;6245208;28;20071;-88
2021/09/14 14:31:36;;;;;;;9.35;5.50;;;;;;;;;;6215592;28;20087;-88
2021/09/14 14:34:37;;;;;;;7.70;5.47;;;;;;;;;;6233201;28;20406;-89
2021/09/14 14:37:38;;;;;;;7.87;5.70;;;;;;;;;;6244247;28;20021;-89
2021/09/14 14:40:40;;;;;;;30.77;16.13;;;25.30;91.90;;;;;;6243845;28;20766;-77
2021/09/14 14:43:41;;;;;;;7.07;5.78;;;25.20;92.50;;;;;;6232888;28;20342;-87
2021/09/14 14:46:42;;;;;;;6.07;5.17;;;25.20;93.10;;;;;;6206593;28;20365;-87
2021/09/14 14:49:43;;;;;;;6.27;5.60;;;;;;;;;;6228128;28;20383;-87
2021/09/14 14:52:44;;;;;;;7.40;5.57;;;;;;;;;;6227953;28;20075;-90
2021/09/14 14:55:45;;;;;;;12.68;6.68;;;25.40;91.70;;;;;;6232822;28;20286;-81
2021/09/14 14:58:45;;;;;;;8.03;5.60;;;25.40;92.30;;;;;;6236834;28;20045;-82
2021/09/14 15:01:46;;;;;;;7.17;5.57;;;25.50;91.60;;;;;;6248931;28;20035;-82
2021/09/14 15:04:46;;;;;;;10.57;5.17;;;25.50;90.50;;;;;;6244766;28;20056;-81
2021/09/14 15:07:47;;;;;;;6.33;4.90;;;25.60;90.40;;;;;;6209941;28;20047;-82
2021/09/14 15:10:47;;;;;;;7.47;5.43;;;25.60;91.30;;;;;;6236000;28;20044;-82
2021/09/14 15:13:48;;;;;;;7.50;5.13;;;25.50;90.80;;;;;;6220686;28;20111;-81
2021/09/14 15:16:49;;;;;;;7.60;5.50;;;25.30;92.30;;;;;;6245862;28;20033;-82
2021/09/14 15:19:49;;;;;;;6.23;5.13;;;25.30;92.70;;;;;;6197315;28;20113;-81
2021/09/14 15:22:50;;;;;;;7.60;5.57;;;25.80;93.40;;;;;;6235878;28;20060;-81
2021/09/14 15:25:51;;;;;;;11.33;7.50;;;25.20;99.90;;;;;;6202485;28;20140;-82
2021/09/14 15:28:55;;;;;;;7.80;5.68;;;25.10;94.80;;;;;;6219613;28;20064;-82
2021/09/14 15:31:56;;;;;;;8.25;5.38;;;25.00;95.50;;;;;;6235753;28;20037;-82
2021/09/14 15:34:56;;;;;;;6.43;5.00;;;25.00;95.90;;;;;;6239391;28;20053;-83
2021/09/14 15:37:58;;;;;;;8.93;5.73;;;25.00;96.40;;;;;;6236157;28;20063;-84
2021/09/14 15:41:02;;;;;;;;;;;25.10;96.30;;;;;;6219935;28;20032;-82
2021/09/14 15:44:03;;;;;;;6.45;5.65;;;25.10;99.90;;;;;;6251776;28;19912;-80
2021/09/14 15:47:04;;;;;;;6.43;5.73;;;25.10;95.30;;;;;;6235847;28;20119;-82
2021/09/14 15:50:05;;;;;;;8.73;6.80;;;25.20;95.50;;;;;;6233136;28;20148;-83
2021/09/14 15:53:05;;;;;;;10.25;7.25;;;25.20;95.90;;;;;;6204039;28;20432;-81
2021/09/14 15:56:11;;;;;;;9.90;6.13;;;24.90;99.90;;;;;;6209982;28;20029;-91
2021/09/14 15:59:12;;;;;;;12.93;6.05;;;24.80;99.90;;;;;;6177784;28;20089;-86
2021/09/14 16:06:39;;;;;;;16.63;7.68;;;24.70;98.10;;;;;;6122550;29;20474;-90
2021/09/14 16:09:56;;;;;;;6.93;6.22;;;24.50;98.30;;;;;;6067499;29;20722;-88
2021/09/14 16:13:02;;;;;;;7.95;5.90;;;24.60;99.00;;;;;;6075406;29;20153;-90
2021/09/14 16:16:03;;;;;;;8.38;5.90;;;24.50;99.90;;;;;;6074474;29;20032;-85
2021/09/14 16:19:05;;;;;;;7.65;6.65;;;24.30;99.90;;;;;;6074894;29;20127;-89
2021/09/14 16:22:05;;;;;;;;;;;24.40;99.90;;;;;;6075882;29;20191;-89
2021/09/14 16:25:15;;;;;;;9.20;7.13;;;24.00;99.90;;;;;;6059904;29;19903;-91
2021/09/14 16:28:19;;;;;;;11.60;7.25;;;23.80;99.90;;;;;;6074711;29;20039;-87
2021/09/14 16:31:21;;;;;;;8.57;6.65;;;26.30;99.90;;;;;;6102199;29;20032;-85
2021/09/14 16:34:24;;;;;;;8.18;6.60;;;23.80;99.90;;;;;;6107529;29;20047;-92
2021/09/14 16:37:35;;;;;;;9.85;7.15;;;23.80;99.90;;;;;;6106479;29;20031;-90
2021/09/14 16:40:36;;;;;;;9.35;6.70;;;24.40;99.90;;;;;;6189635;28;20132;-86
2021/09/14 16:43:37;;;;;;;11.63;7.33;;;;;;;;;;6230548;28;20595;-89
2021/09/14 16:46:38;;;;;;;7.90;6.57;;;;;;;;;;6230368;28;20314;-86
2021/09/14 16:49:48;;;;;;;8.10;7.13;;;23.40;99.90;;;;;;6221360;28;20029;-86
2021/09/14 16:52:49;;;;;;;8.45;6.90;;;;;;;;;;6206576;28;20108;-89
2021/09/14 16:55:50;;;;;;;7.00;6.13;;;23.10;99.90;;;;;;6234297;28;20018;-88
2021/09/14 16:58:50;;;;;;;7.20;6.50;;;22.90;99.90;;;;;;6213385;28;20526;-87
2021/09/14 17:01:51;;;;;;;8.83;6.50;;;;;;;;;;6212571;28;20025;-87
2021/09/14 17:08:22;;;;;;;9.32;6.82;;;22.80;99.90;;;;;;6236794;28;20119;-89
2021/09/14 17:11:23;;;;;;;9.10;6.53;;;;;;;;;;6216789;28;20063;-89
2021/09/14 17:14:23;;;;;;;9.70;7.35;;;21.70;99.90;;;;;;6232784;28;20037;-87
2021/09/14 17:17:25;;;;;;;11.83;6.63;;;;;;;;;;6205764;28;20025;-87
2021/09/14 17:20:28;;;;;;;7.43;6.72;;;;;;;;;;6230594;28;20075;-90
2021/09/14 17:23:29;;;;;;;11.77;6.80;;;;;;;;;;6230296;28;20036;-86
2021/09/14 17:26:30;;;;;;;10.33;6.97;;;22.60;99.90;;;;;;6221205;28;20025;-89
2021/09/14 17:29:31;;;;;;;9.20;6.70;;;;;;;;;;6217905;28;20482;-87
2021/09/14 17:32:36;;;;;;;7.75;6.10;;;22.30;99.90;;;;;;6250085;28;20466;-87
2021/09/14 17:35:39;;;;;;;10.45;7.22;;;22.30;99.90;;;;;;6213014;28;20021;-86
2021/09/14 17:38:40;;;;;;;8.38;6.63;;;;;;;;;;6217497;28;20033;-88
2021/09/14 17:41:49;;;;;;;9.45;6.90;;;22.80;99.90;;;;;;6246317;28;20387;-91
2021/09/14 17:49:19;;;;;;;12.63;7.10;;;22.10;99.90;;;;;;6268293;28;20033;-92
2021/09/14 17:52:25;;;;;;;9.97;6.53;;;;;;;;;;6234292;28;20045;-88
2021/09/14 17:55:26;;;;;;;20.10;7.05;;;;;;;;;;6234588;28;20025;-83
2021/09/14 17:58:27;;;;;;;9.03;7.50;;;;;;;;;;6250655;28;20065;-87
2021/09/14 18:01:28;;;;;;;8.10;7.30;;;;;;;;;;6233580;28;20013;-90
2021/09/14 18:04:30;;;;;;;12.20;7.13;;;21.90;99.90;;;;;;6234823;28;20013;-87
2021/09/14 18:07:31;;;;;;;11.35;7.18;;;21.70;99.90;;;;;;6217204;28;20105;-88
2021/09/14 18:10:32;;;;;;;12.90;7.97;;;21.80;99.90;;;;;;6216952;28;20178;-90
2021/09/14 18:13:32;;;;;;;8.73;7.32;;;21.50;99.90;;;;;;6216247;28;20360;-85
2021/09/14 18:16:33;;;;;;;10.15;7.00;;;21.60;99.90;;;;;;6235087;28;20117;-87
2021/09/14 18:19:36;;;;;;;8.73;6.10;;;21.50;99.90;;;;;;6217072;28;20025;-85